Time;durP1;ratioP1;P1;durP2;ratioP2;P2;SDS_P1;SDS_P2;PMS_P1;PMS_P2;Temp;Humidity;BMP_temperature;BMP_pressure;BME280_temperature;BME280_humidity;BME280_pressure;Samples;Min_cycle;Max_cycle;Signal;HPM_P1;HPM_P2
2022/01/04 00:01:24;;;;;;;0.90;0.80;;;7.50;99.90;;;;;;4986094;28;20180;-80
2022/01/04 00:03:50;;;;;;;0.80;0.80;;;7.50;99.90;;;;;;5001886;28;20242;-78
2022/01/04 00:06:15;;;;;;;1.33;1.20;;;7.50;99.90;;;;;;4987331;28;20592;-79
2022/01/04 00:08:41;;;;;;;1.00;0.90;;;7.50;99.90;;;;;;4986517;28;20176;-78
2022/01/04 00:11:31;;;;;;;2.60;1.00;;;7.40;99.90;;;;;;4986084;28;20910;-78
2022/01/04 00:13:56;;;;;;;1.67;1.17;;;7.30;99.90;;;;;;5002004;28;20180;-79
2022/01/04 00:16:22;;;;;;;1.33;1.10;;;7.30;99.90;;;;;;4987062;28;20216;-80
2022/01/04 00:18:48;;;;;;;1.37;1.27;;;7.40;99.90;;;;;;4987122;28;20208;-78
2022/01/04 00:21:13;;;;;;;2.37;1.17;;;7.30;99.90;;;;;;4987322;28;20592;-78
2022/01/04 00:23:39;;;;;;;2.23;1.40;;;7.30;99.90;;;;;;4985689;28;20188;-78
2022/01/04 00:26:05;;;;;;;3.27;1.60;;;7.30;99.90;;;;;;4987299;28;20215;-80
2022/01/04 00:28:31;;;;;;;1.57;1.30;;;7.20;99.90;;;;;;4986517;28;20231;-79
2022/01/04 00:30:57;;;;;;;1.47;1.13;;;7.30;99.90;;;;;;4977133;28;20184;-78
2022/01/04 00:33:23;;;;;;;2.87;1.20;;;7.20;99.90;;;;;;4986896;28;20180;-78
2022/01/04 00:35:49;;;;;;;2.87;1.13;;;7.20;99.90;;;;;;4986618;28;21215;-78
2022/01/04 00:38:15;;;;;;;2.33;1.40;;;7.20;99.90;;;;;;5001353;28;20640;-78
2022/01/04 00:40:40;;;;;;;1.73;1.23;;;7.30;99.90;;;;;;4986311;28;20204;-78
2022/01/04 00:43:06;;;;;;;1.20;1.10;;;7.30;99.90;;;;;;5001554;28;20181;-78
2022/01/04 00:45:35;;;;;;;2.97;1.27;;;7.30;99.90;;;;;;5000958;28;20211;-78
2022/01/04 00:50:28;;;;;;;2.10;1.17;;;7.40;99.90;;;;;;4986508;28;20600;-78
2022/01/04 00:52:56;;;;;;;1.07;0.97;;;7.40;99.90;;;;;;4985951;28;20184;-78
2022/01/04 00:55:22;;;;;;;1.43;1.17;;;7.30;99.90;;;;;;4984107;28;20210;-79
2022/01/04 00:57:48;;;;;;;1.73;1.20;;;7.40;99.90;;;;;;4987921;28;20208;-79
2022/01/04 01:00:15;;;;;;;1.40;1.30;;;7.50;99.90;;;;;;4991019;28;20619;-79
2022/01/04 01:02:41;;;;;;;4.10;1.40;;;7.50;99.90;;;;;;4991493;28;20191;-78
2022/01/04 01:05:08;;;;;;;1.43;1.20;;;7.50;99.90;;;;;;4991309;28;20204;-81
2022/01/04 01:07:34;;;;;;;1.97;1.20;;;7.30;99.90;;;;;;4991277;28;20196;-79
2022/01/04 01:10:24;;;;;;;2.20;1.30;;;7.40;99.90;;;;;;4997946;28;20741;-79
2022/01/04 01:12:50;;;;;;;1.73;1.10;;;7.30;99.90;;;;;;4989376;28;20654;-81
2022/01/04 01:15:15;;;;;;;1.87;1.10;;;7.40;99.90;;;;;;4989606;28;20216;-78
2022/01/04 01:17:41;;;;;;;3.00;1.23;;;7.40;99.90;;;;;;5005744;28;20207;-78
2022/01/04 01:20:09;;;;;;;2.40;1.03;;;7.40;99.90;;;;;;4989328;28;20663;-81
2022/01/04 01:22:35;;;;;;;1.30;1.03;;;7.40;99.90;;;;;;5005521;28;20177;-79
2022/01/04 01:25:01;;;;;;;1.73;1.10;;;7.40;99.90;;;;;;4989101;28;20688;-78
2022/01/04 01:27:27;;;;;;;4.53;1.47;;;7.40;99.90;;;;;;4991388;28;20188;-79
2022/01/04 01:29:53;;;;;;;1.83;1.27;;;7.40;99.90;;;;;;4989026;28;20374;-78
2022/01/04 01:32:19;;;;;;;2.50;1.23;;;7.30;99.90;;;;;;5005305;28;20702;-80
2022/01/04 01:34:45;;;;;;;1.93;1.73;;;7.30;99.90;;;;;;4987894;28;20188;-78
2022/01/04 01:37:10;;;;;;;1.53;1.10;;;7.40;99.90;;;;;;4990012;28;21223;-79
2022/01/04 01:39:36;;;;;;;3.87;1.40;;;7.40;99.90;;;;;;4997935;28;20192;-79
2022/01/04 01:42:03;;;;;;;2.40;1.30;;;7.30;99.90;;;;;;5005519;28;20184;-79
2022/01/04 01:44:31;;;;;;;2.97;1.10;;;7.30;99.90;;;;;;4990254;28;20664;-81
2022/01/04 01:46:57;;;;;;;3.33;1.10;;;7.30;99.90;;;;;;4990530;28;20222;-78
2022/01/04 01:49:22;;;;;;;1.57;1.20;;;7.30;99.90;;;;;;4990512;28;20220;-78
2022/01/04 01:51:48;;;;;;;1.20;1.10;;;7.30;99.90;;;;;;4990865;28;20673;-78
2022/01/04 01:54:14;;;;;;;1.77;1.13;;;7.30;99.90;;;;;;5004424;28;21115;-79
2022/01/04 01:56:40;;;;;;;2.17;1.40;;;7.40;99.90;;;;;;5005134;28;20255;-79
2022/01/04 01:59:06;;;;;;;2.10;1.20;;;7.30;99.90;;;;;;4988892;28;20188;-79
2022/01/04 02:01:32;;;;;;;1.17;1.07;;;7.40;99.90;;;;;;4981404;28;20267;-78
2022/01/04 02:03:58;;;;;;;1.40;1.10;;;7.30;99.90;;;;;;4990039;28;20691;-81
2022/01/04 02:06:29;;;;;;;1.47;1.20;;;7.30;99.90;;;;;;4988938;28;20223;-80
2022/01/04 02:08:57;;;;;;;2.90;1.40;;;7.30;99.90;;;;;;4987481;28;20583;-78
2022/01/04 02:11:25;;;;;;;1.30;1.10;;;7.30;99.90;;;;;;4996929;28;20208;-79
2022/01/04 02:13:51;;;;;;;2.33;1.40;;;7.30;99.90;;;;;;5004778;28;20198;-78
2022/01/04 02:16:17;;;;;;;1.83;1.50;;;7.30;99.90;;;;;;5004738;28;20212;-81
2022/01/04 02:18:43;;;;;;;1.80;1.27;;;7.20;99.90;;;;;;4988699;28;20683;-78
2022/01/04 02:21:08;;;;;;;2.47;1.30;;;7.20;99.90;;;;;;4990187;28;20192;-78
2022/01/04 02:23:34;;;;;;;1.67;1.33;;;7.10;99.90;;;;;;4990099;28;20611;-78
2022/01/04 02:26:02;;;;;;;1.97;1.10;;;7.10;99.90;;;;;;4989672;28;20232;-79
2022/01/04 02:28:29;;;;;;;2.27;1.60;;;7.20;99.90;;;;;;4989690;28;21168;-79
2022/01/04 02:30:56;;;;;;;2.60;1.33;;;7.20;99.90;;;;;;4989139;28;20189;-78
2022/01/04 02:33:21;;;;;;;1.23;1.13;;;7.10;99.90;;;;;;5003994;28;20188;-78
2022/01/04 02:35:47;;;;;;;2.70;1.57;;;7.10;99.90;;;;;;4996371;28;20219;-78
2022/01/04 02:38:12;;;;;;;2.30;1.50;;;7.10;99.90;;;;;;4995993;28;20262;-80
2022/01/04 02:40:38;;;;;;;1.50;1.30;;;7.10;99.90;;;;;;4989913;28;20191;-78
2022/01/04 02:43:04;;;;;;;1.53;1.17;;;7.10;99.90;;;;;;4988503;28;20189;-78
2022/01/04 02:45:30;;;;;;;1.30;1.20;;;7.10;99.90;;;;;;4987271;28;20228;-78
2022/01/04 02:47:55;;;;;;;2.43;1.50;;;7.10;99.90;;;;;;4987767;28;20195;-80
2022/01/04 02:50:21;;;;;;;2.73;1.87;;;7.20;99.90;;;;;;4988561;28;20212;-78
2022/01/04 02:52:47;;;;;;;3.13;1.70;;;7.20;99.90;;;;;;4989496;28;20188;-78
2022/01/04 02:55:14;;;;;;;2.43;1.70;;;7.20;99.90;;;;;;4988529;28;20208;-79
2022/01/04 02:57:41;;;;;;;2.03;1.20;;;7.20;99.90;;;;;;4989054;28;20216;-78
2022/01/04 03:00:09;;;;;;;2.60;1.47;;;7.20;99.90;;;;;;4988916;28;20188;-78
2022/01/04 03:02:35;;;;;;;1.80;1.33;;;7.10;99.90;;;;;;4988867;28;20180;-78
2022/01/04 03:05:01;;;;;;;1.30;1.20;;;7.10;99.90;;;;;;4988992;28;20208;-80
2022/01/04 03:07:26;;;;;;;2.73;1.30;;;7.10;99.90;;;;;;4989474;28;20196;-81
2022/01/04 03:09:53;;;;;;;2.00;1.60;;;7.10;99.90;;;;;;4987354;28;20189;-79
2022/01/04 03:12:19;;;;;;;3.30;1.70;;;7.10;99.90;;;;;;4989093;28;20242;-79
2022/01/04 03:14:45;;;;;;;2.47;1.47;;;7.20;99.90;;;;;;4988603;28;20662;-78
2022/01/04 03:17:11;;;;;;;2.33;1.27;;;7.20;99.90;;;;;;4988590;28;20220;-79
2022/01/04 03:19:36;;;;;;;3.50;1.33;;;7.30;99.90;;;;;;4986835;28;20323;-80
2022/01/04 03:22:02;;;;;;;2.57;1.50;;;7.50;99.90;;;;;;4988484;28;20191;-79
2022/01/04 03:24:28;;;;;;;1.50;1.33;;;7.50;99.90;;;;;;5003701;28;20255;-78
2022/01/04 03:26:54;;;;;;;1.20;1.10;;;7.60;99.90;;;;;;4987174;28;20367;-80
2022/01/04 03:29:20;;;;;;;1.40;1.27;;;7.60;99.90;;;;;;4988313;28;20197;-81
2022/01/04 03:31:45;;;;;;;1.73;1.40;;;7.70;99.90;;;;;;4986186;28;20256;-78
2022/01/04 03:34:12;;;;;;;1.37;1.17;;;7.60;99.90;;;;;;4986542;28;20335;-79
2022/01/04 03:36:38;;;;;;;1.30;1.20;;;7.70;99.90;;;;;;4994537;28;20219;-78
2022/01/04 03:39:06;;;;;;;1.83;1.50;;;7.70;99.90;;;;;;4995207;28;20203;-79
2022/01/04 03:41:37;;;;;;;2.07;1.50;;;7.70;99.90;;;;;;5002276;28;20646;-78
2022/01/04 03:44:04;;;;;;;2.43;1.30;;;7.60;99.90;;;;;;4987742;28;20181;-78
2022/01/04 03:46:30;;;;;;;1.97;1.17;;;7.50;99.90;;;;;;4986491;28;20204;-78
2022/01/04 03:48:56;;;;;;;2.47;1.00;;;7.50;99.90;;;;;;4986337;28;20192;-79
2022/01/04 03:51:21;;;;;;;1.57;1.30;;;7.50;99.90;;;;;;4986494;28;20180;-81
2022/01/04 03:53:47;;;;;;;2.10;1.10;;;7.50;99.90;;;;;;4988182;28;20186;-78
2022/01/04 03:56:13;;;;;;;1.53;1.00;;;7.60;99.90;;;;;;4986505;28;20200;-78
2022/01/04 03:58:38;;;;;;;2.17;1.07;;;7.60;99.90;;;;;;4994683;28;20235;-78
2022/01/04 04:01:04;;;;;;;1.13;1.00;;;7.60;99.90;;;;;;4985196;28;20192;-79
2022/01/04 04:03:30;;;;;;;1.90;1.00;;;7.60;99.90;;;;;;4986569;28;20176;-78
2022/01/04 04:05:56;;;;;;;0.80;0.80;;;7.50;99.90;;;;;;4986942;28;20216;-79
2022/01/04 04:08:21;;;;;;;1.97;0.97;;;7.70;99.90;;;;;;4987103;28;20191;-78
2022/01/04 04:10:47;;;;;;;0.90;0.80;;;7.80;99.90;;;;;;5002250;28;20191;-78
2022/01/04 04:13:12;;;;;;;1.13;0.90;;;7.70;99.90;;;;;;4986904;28;21230;-78
2022/01/04 04:15:40;;;;;;;0.90;0.90;;;7.70;99.90;;;;;;5001586;28;20204;-78
2022/01/04 04:18:09;;;;;;;1.87;0.73;;;7.70;99.90;;;;;;4987314;28;20196;-78
2022/01/04 04:20:35;;;;;;;1.47;0.87;;;7.70;99.90;;;;;;4986534;28;20168;-78
2022/01/04 04:23:02;;;;;;;1.43;0.77;;;7.60;99.90;;;;;;4987030;28;20650;-80
2022/01/04 04:25:28;;;;;;;0.70;0.70;;;7.50;99.90;;;;;;4992568;28;20226;-78
2022/01/04 04:27:53;;;;;;;0.93;0.80;;;7.70;99.90;;;;;;4986098;28;20188;-78
2022/01/04 04:30:19;;;;;;;0.70;0.70;;;7.70;99.90;;;;;;4987126;28;20195;-79
2022/01/04 04:32:44;;;;;;;1.97;0.70;;;7.70;99.90;;;;;;4984547;28;21063;-78
2022/01/04 04:35:10;;;;;;;0.80;0.80;;;7.80;99.90;;;;;;4985063;28;21317;-78
2022/01/04 04:37:35;;;;;;;0.77;0.67;;;7.70;99.90;;;;;;4985366;28;20258;-78
2022/01/04 04:40:02;;;;;;;0.93;0.80;;;7.70;99.90;;;;;;4984907;28;20184;-78
2022/01/04 04:42:27;;;;;;;2.23;0.73;;;7.80;99.90;;;;;;4985312;28;20193;-78
2022/01/04 04:44:53;;;;;;;0.87;0.87;;;7.70;99.90;;;;;;4984386;28;20200;-78
2022/01/04 04:47:19;;;;;;;0.80;0.70;;;7.70;99.90;;;;;;4983555;28;20271;-80
2022/01/04 04:49:45;;;;;;;1.23;1.00;;;7.70;99.90;;;;;;4985225;28;20799;-78
2022/01/04 04:52:11;;;;;;;0.93;0.80;;;7.70;99.90;;;;;;4985969;28;20250;-79
2022/01/04 04:54:36;;;;;;;0.70;0.67;;;7.60;99.90;;;;;;4985553;28;20184;-80
2022/01/04 04:57:02;;;;;;;1.23;0.70;;;7.70;99.90;;;;;;4982988;28;20212;-78
2022/01/04 04:59:28;;;;;;;0.50;0.50;;;7.70;99.90;;;;;;4981455;28;20267;-78
2022/01/04 05:01:54;;;;;;;1.10;1.00;;;7.80;99.90;;;;;;4982946;28;20367;-79
2022/01/04 05:04:19;;;;;;;0.80;0.80;;;7.70;99.90;;;;;;4983265;28;20223;-79
2022/01/04 05:06:45;;;;;;;0.80;0.70;;;7.80;99.90;;;;;;4985082;28;20204;-77
2022/01/04 05:09:10;;;;;;;1.10;0.73;;;7.80;99.90;;;;;;4985815;28;20192;-79
2022/01/04 05:11:36;;;;;;;0.67;0.63;;;7.80;99.90;;;;;;4983633;28;20219;-80
2022/01/04 05:14:01;;;;;;;0.80;0.80;;;7.80;99.90;;;;;;4983561;28;20181;-80
2022/01/04 05:16:27;;;;;;;0.70;0.67;;;7.80;99.90;;;;;;4983461;28;20578;-78
2022/01/04 05:18:54;;;;;;;0.70;0.60;;;7.80;99.90;;;;;;4985582;28;20180;-79
2022/01/04 05:21:19;;;;;;;0.70;0.60;;;7.80;99.90;;;;;;4999349;28;20375;-79
2022/01/04 05:23:45;;;;;;;0.80;0.70;;;7.80;99.90;;;;;;4983797;28;20275;-80
2022/01/04 05:26:11;;;;;;;0.67;0.67;;;7.70;99.90;;;;;;4984633;28;20227;-78
2022/01/04 05:28:38;;;;;;;0.80;0.80;;;7.70;99.90;;;;;;4986015;28;20360;-79
2022/01/04 05:31:04;;;;;;;1.23;0.70;;;7.80;99.90;;;;;;4983900;28;20184;-79
2022/01/04 05:33:29;;;;;;;1.53;1.40;;;7.70;99.90;;;;;;4984422;28;20188;-79
2022/01/04 05:35:55;;;;;;;1.10;1.00;;;7.60;99.90;;;;;;4983482;28;20204;-79
2022/01/04 05:38:21;;;;;;;1.03;0.70;;;7.70;99.90;;;;;;4985091;28;20307;-78
2022/01/04 05:40:47;;;;;;;0.80;0.80;;;7.70;99.90;;;;;;4984852;28;20180;-77
2022/01/04 05:43:13;;;;;;;1.00;0.90;;;7.50;99.90;;;;;;4982959;28;20216;-78
2022/01/04 05:45:39;;;;;;;1.47;0.80;;;7.60;99.90;;;;;;4987130;28;20250;-79
2022/01/04 05:48:05;;;;;;;0.73;0.73;;;7.60;99.90;;;;;;4987837;28;20196;-80
2022/01/04 05:50:31;;;;;;;0.80;0.80;;;7.60;99.90;;;;;;4988195;28;20200;-78
2022/01/04 05:52:57;;;;;;;0.70;0.67;;;7.60;99.90;;;;;;4988769;28;20183;-80
2022/01/04 05:55:22;;;;;;;0.60;0.60;;;7.60;99.90;;;;;;4987379;28;20217;-80
2022/01/04 05:57:48;;;;;;;0.60;0.60;;;7.50;99.90;;;;;;4986697;28;20208;-78
2022/01/04 06:00:14;;;;;;;0.80;0.70;;;7.50;99.90;;;;;;4986837;28;20223;-78
2022/01/04 06:02:40;;;;;;;0.70;0.70;;;7.60;99.90;;;;;;4987013;28;20191;-79
2022/01/04 06:05:06;;;;;;;0.50;0.50;;;7.60;99.90;;;;;;4988513;28;20208;-80
2022/01/04 06:07:32;;;;;;;0.60;0.60;;;7.60;99.90;;;;;;4987533;28;20222;-78
2022/01/04 06:09:57;;;;;;;1.33;0.60;;;7.60;99.90;;;;;;4985964;28;20275;-80
2022/01/04 06:14:52;;;;;;;0.40;0.40;;;7.40;99.90;;;;;;4987826;28;20621;-80
2022/01/04 06:17:20;;;;;;;0.80;0.57;;;7.40;99.90;;;;;;4987326;28;20211;-80
2022/01/04 06:19:46;;;;;;;0.57;0.57;;;7.30;99.90;;;;;;4986261;28;20797;-78
2022/01/04 06:22:11;;;;;;;0.70;0.70;;;7.30;99.90;;;;;;4987780;28;20263;-80
2022/01/04 06:24:37;;;;;;;0.83;0.70;;;7.30;99.90;;;;;;4986034;28;20248;-79
2022/01/04 06:27:10;;;;;;;0.57;0.57;;;7.30;99.90;;;;;;4987256;28;20271;-79
2022/01/04 06:29:39;;;;;;;2.20;0.60;;;7.30;99.90;;;;;;4985295;28;20180;-78
2022/01/04 06:32:06;;;;;;;0.60;0.60;;;7.40;99.90;;;;;;4985676;28;20196;-79
2022/01/04 06:34:32;;;;;;;2.00;0.87;;;7.50;99.90;;;;;;4986529;28;20227;-78
2022/01/04 06:36:58;;;;;;;0.70;0.70;;;7.30;99.90;;;;;;5002410;28;20224;-80
2022/01/04 06:39:23;;;;;;;1.37;0.80;;;7.30;99.90;;;;;;4985577;28;20188;-79
2022/01/04 06:41:49;;;;;;;0.70;0.70;;;7.20;99.90;;;;;;4987411;28;20230;-79
2022/01/04 06:44:15;;;;;;;0.80;0.60;;;7.10;99.90;;;;;;4985538;28;20455;-79
2022/01/04 06:46:45;;;;;;;0.43;0.43;;;7.10;99.90;;;;;;4986785;28;20212;-78
2022/01/04 06:49:12;;;;;;;0.60;0.60;;;7.00;99.90;;;;;;5001943;28;20220;-80
2022/01/04 06:51:38;;;;;;;2.23;0.80;;;7.00;99.90;;;;;;5001380;28;20206;-78
2022/01/04 06:54:04;;;;;;;0.60;0.60;;;7.00;99.90;;;;;;4987219;28;20184;-78
2022/01/04 06:56:30;;;;;;;1.33;0.60;;;6.90;99.90;;;;;;4986342;28;20208;-78
2022/01/04 06:58:55;;;;;;;2.83;0.80;;;6.90;99.90;;;;;;4985740;28;20189;-80
2022/01/04 07:01:22;;;;;;;7.30;0.90;;;6.80;99.90;;;;;;4984793;28;21055;-80
2022/01/04 07:03:48;;;;;;;3.17;1.17;;;6.80;99.90;;;;;;4986121;28;20549;-78
2022/01/04 07:06:13;;;;;;;4.27;0.83;;;6.80;99.90;;;;;;4986433;28;20204;-78
2022/01/04 07:08:39;;;;;;;2.77;0.80;;;6.80;99.90;;;;;;4985142;28;20670;-78
2022/01/04 07:11:05;;;;;;;0.70;0.60;;;6.80;99.90;;;;;;4986122;28;20196;-80
2022/01/04 07:13:31;;;;;;;1.53;0.60;;;6.80;99.90;;;;;;5001182;28;20196;-79
2022/01/04 07:15:56;;;;;;;1.17;0.60;;;6.70;99.90;;;;;;5001568;28;20207;-79
2022/01/04 07:18:22;;;;;;;1.00;0.73;;;6.80;99.90;;;;;;4986338;28;20216;-80
2022/01/04 07:20:47;;;;;;;1.00;0.60;;;6.80;99.90;;;;;;4984386;28;20470;-78
2022/01/04 07:23:13;;;;;;;0.80;0.67;;;6.80;99.90;;;;;;4986124;28;20188;-78
2022/01/04 07:25:39;;;;;;;0.70;0.60;;;6.80;99.90;;;;;;4986041;28;20220;-79
2022/01/04 07:28:04;;;;;;;0.90;0.80;;;6.80;99.90;;;;;;4986726;28;20196;-78
2022/01/04 07:30:30;;;;;;;0.67;0.67;;;6.80;99.90;;;;;;4986016;28;20192;-80
2022/01/04 07:32:56;;;;;;;0.70;0.70;;;6.80;99.90;;;;;;4986298;28;20247;-77
2022/01/04 07:35:22;;;;;;;0.83;0.70;;;6.70;99.90;;;;;;4985775;28;20569;-78
2022/01/04 07:37:47;;;;;;;1.00;0.77;;;6.70;99.90;;;;;;4974007;28;20204;-77
2022/01/04 07:40:13;;;;;;;1.20;1.00;;;6.70;99.90;;;;;;4985817;28;20652;-78
2022/01/04 07:42:38;;;;;;;1.10;0.90;;;6.80;99.90;;;;;;4984520;28;20607;-80
2022/01/04 07:45:05;;;;;;;0.90;0.90;;;6.70;99.90;;;;;;4985729;28;20212;-78
2022/01/04 07:47:31;;;;;;;1.10;1.00;;;6.80;99.90;;;;;;4984763;28;20283;-80
2022/01/04 07:49:56;;;;;;;1.00;0.90;;;6.80;99.90;;;;;;4984578;28;20288;-79
2022/01/04 07:52:22;;;;;;;1.10;1.00;;;6.80;99.90;;;;;;4985019;28;20658;-79
2022/01/04 07:54:48;;;;;;;1.63;1.00;;;6.90;99.90;;;;;;4985749;28;20767;-78
2022/01/04 07:57:13;;;;;;;1.83;1.20;;;6.80;99.90;;;;;;4985470;28;20436;-78
2022/01/04 07:59:39;;;;;;;1.43;0.77;;;6.90;99.90;;;;;;4985856;28;20176;-78
2022/01/04 08:02:05;;;;;;;1.40;0.90;;;7.00;99.90;;;;;;4983588;28;20643;-80
2022/01/04 08:04:30;;;;;;;0.93;0.83;;;7.00;99.90;;;;;;4983734;28;20658;-78
2022/01/04 08:06:56;;;;;;;2.03;0.77;;;7.00;99.90;;;;;;4984425;28;20208;-78
2022/01/04 08:09:22;;;;;;;0.87;0.67;;;7.10;99.90;;;;;;4985416;28;20651;-78
2022/01/04 08:11:47;;;;;;;3.93;1.23;;;7.20;99.90;;;;;;4999700;28;20731;-79
2022/01/04 08:14:13;;;;;;;0.73;0.70;;;7.20;99.90;;;;;;4984672;28;20188;-78
2022/01/04 08:16:39;;;;;;;0.80;0.80;;;7.20;99.90;;;;;;4984520;28;20278;-78
2022/01/04 08:19:05;;;;;;;1.80;0.70;;;7.30;99.90;;;;;;4982026;28;20279;-78
2022/01/04 08:21:31;;;;;;;0.70;0.60;;;7.30;99.90;;;;;;4984196;28;20189;-79
2022/01/04 08:23:56;;;;;;;1.57;0.90;;;7.30;99.90;;;;;;4983907;28;20184;-78
2022/01/04 08:26:22;;;;;;;1.50;0.90;;;7.40;99.90;;;;;;4984317;28;20580;-79
2022/01/04 08:28:47;;;;;;;1.47;0.80;;;7.30;99.90;;;;;;4999518;28;20458;-77
2022/01/04 08:31:13;;;;;;;1.03;0.80;;;7.40;99.90;;;;;;4982492;28;20184;-78
2022/01/04 08:33:39;;;;;;;1.30;0.90;;;7.40;99.90;;;;;;4984020;28;20184;-78
2022/01/04 08:36:04;;;;;;;1.10;0.90;;;7.50;99.90;;;;;;4983281;28;20585;-79
2022/01/04 08:38:31;;;;;;;0.63;0.63;;;7.50;99.90;;;;;;4983190;28;20361;-77
2022/01/04 08:40:56;;;;;;;1.43;0.93;;;7.50;99.90;;;;;;4985009;28;20666;-78
2022/01/04 08:43:24;;;;;;;1.10;1.00;;;7.50;99.90;;;;;;4983286;28;20207;-80
2022/01/04 08:45:50;;;;;;;1.20;1.10;;;7.50;99.90;;;;;;4983833;28;20570;-79
2022/01/04 08:48:15;;;;;;;1.40;1.30;;;7.60;99.90;;;;;;4983988;28;20189;-77
2022/01/04 08:50:41;;;;;;;1.53;1.20;;;7.60;99.90;;;;;;4984105;28;20196;-78
2022/01/04 08:53:10;;;;;;;1.13;1.00;;;7.60;99.90;;;;;;4982527;28;20188;-79
2022/01/04 08:55:37;;;;;;;1.40;1.13;;;7.70;99.90;;;;;;4983676;28;20202;-78
2022/01/04 08:58:03;;;;;;;2.27;1.30;;;7.60;99.90;;;;;;4983505;28;20681;-77
2022/01/04 09:00:29;;;;;;;1.30;1.20;;;7.60;99.90;;;;;;4983256;28;20191;-79
2022/01/04 09:02:55;;;;;;;1.20;1.10;;;7.70;99.90;;;;;;4983764;28;20271;-78
2022/01/04 09:05:20;;;;;;;1.40;1.30;;;7.70;99.90;;;;;;4982905;28;20487;-79
2022/01/04 09:07:46;;;;;;;1.37;1.10;;;7.70;99.90;;;;;;4984975;28;20181;-78
2022/01/04 09:10:11;;;;;;;1.37;1.27;;;7.70;99.90;;;;;;4985724;28;20188;-77
2022/01/04 09:15:28;;;;;;;1.57;1.20;;;7.70;99.90;;;;;;4984352;28;20704;-80
2022/01/04 09:20:36;;;;;;;2.10;1.63;;;7.60;99.90;;;;;;4989309;28;20214;-79
2022/01/04 09:23:02;;;;;;;3.10;2.00;;;7.60;99.90;;;;;;4988592;28;20204;-77
2022/01/04 09:25:27;;;;;;;2.17;1.80;;;7.60;99.90;;;;;;4988505;28;20655;-77
2022/01/04 09:27:53;;;;;;;2.13;1.90;;;7.60;99.90;;;;;;4988188;28;20273;-79
2022/01/04 09:30:18;;;;;;;2.47;2.10;;;7.60;99.90;;;;;;4988198;28;20638;-78
2022/01/04 09:32:44;;;;;;;2.63;2.33;;;7.60;99.90;;;;;;4988408;28;20184;-79
2022/01/04 09:35:12;;;;;;;3.00;2.00;;;7.70;99.90;;;;;;5002194;28;20214;-81
2022/01/04 09:37:38;;;;;;;10.40;2.40;;;7.60;99.90;;;;;;4989574;28;20585;-78
2022/01/04 09:40:04;;;;;;;3.83;2.30;;;7.60;99.90;;;;;;4989637;28;20188;-80
2022/01/04 09:42:31;;;;;;;5.80;2.70;;;7.70;99.90;;;;;;4987345;28;20242;-78
2022/01/04 09:44:56;;;;;;;4.60;2.53;;;7.60;99.90;;;;;;4988056;28;20196;-79
2022/01/04 09:47:22;;;;;;;2.80;1.83;;;7.60;99.90;;;;;;4990128;28;20533;-80
2022/01/04 09:49:48;;;;;;;3.03;2.20;;;7.60;99.90;;;;;;4990228;28;20181;-80
2022/01/04 09:52:19;;;;;;;2.17;1.97;;;7.70;99.90;;;;;;4989110;28;20219;-80
2022/01/04 09:54:46;;;;;;;2.13;1.93;;;7.70;99.90;;;;;;4987571;28;20192;-79
2022/01/04 09:57:16;;;;;;;2.50;2.17;;;7.70;99.90;;;;;;4989363;28;20616;-78
2022/01/04 09:59:41;;;;;;;2.93;2.13;;;7.80;99.90;;;;;;4990112;28;20191;-79
2022/01/04 10:02:17;;;;;;;2.77;2.00;;;7.80;99.90;;;;;;4987444;28;20181;-80
2022/01/04 10:04:43;;;;;;;2.57;1.80;;;7.80;99.90;;;;;;4989037;28;20180;-80
2022/01/04 10:07:09;;;;;;;2.90;1.80;;;7.80;99.90;;;;;;4987709;28;20184;-78
2022/01/04 10:09:36;;;;;;;3.00;2.43;;;7.80;99.90;;;;;;4989315;28;20176;-78
2022/01/04 10:12:02;;;;;;;4.83;1.73;;;7.80;99.90;;;;;;4987501;28;20215;-78
2022/01/04 10:14:28;;;;;;;4.07;2.30;;;7.90;99.90;;;;;;4987712;28;20204;-79
2022/01/04 10:16:56;;;;;;;2.43;1.90;;;7.90;99.90;;;;;;4988175;28;20276;-79
2022/01/04 10:19:29;;;;;;;2.23;1.70;;;7.80;99.90;;;;;;4989742;28;20195;-79
2022/01/04 10:22:19;;;;;;;3.57;2.23;;;7.70;99.90;;;;;;5001951;28;20183;-79
2022/01/04 10:27:33;;;;;;;2.40;1.80;;;7.70;99.90;;;;;;5804444;23;20227;-78
2022/01/04 10:30:28;;;;;;;3.13;1.67;;;7.80;99.90;;;;;;4998154;28;20191;-76
2022/01/04 10:33:08;;;;;;;2.97;1.50;;;7.80;99.90;;;;;;4997914;28;20219;-75
2022/01/04 10:35:46;;;;;;;1.60;1.50;;;7.90;99.90;;;;;;4998817;28;20182;-76
2022/01/04 10:38:28;;;;;;;3.00;1.60;;;7.90;99.90;;;;;;4986899;28;20234;-75
2022/01/04 10:41:10;;;;;;;1.67;1.50;;;7.90;99.90;;;;;;4987769;28;20180;-77
2022/01/04 10:43:48;;;;;;;2.07;1.70;;;8.00;99.90;;;;;;4986811;28;20179;-75
2022/01/04 10:46:21;;;;;;;2.07;1.60;;;8.00;99.90;;;;;;4987317;28;20203;-75
2022/01/04 10:48:49;;;;;;;2.63;1.80;;;8.10;99.90;;;;;;4987596;28;20299;-76
2022/01/04 10:51:22;;;;;;;3.10;1.70;;;8.00;99.90;;;;;;4986930;28;20196;-75
2022/01/04 10:54:00;;;;;;;2.27;2.03;;;8.10;99.90;;;;;;4986780;28;20211;-77
2022/01/04 10:56:37;;;;;;;2.40;2.00;;;8.20;99.90;;;;;;5001673;28;20267;-75
2022/01/04 10:59:09;;;;;;;2.93;1.87;;;8.30;99.90;;;;;;4987046;28;20302;-76
2022/01/04 11:01:43;;;;;;;2.70;1.93;;;8.30;99.90;;;;;;5001693;28;20749;-76
2022/01/04 11:04:16;;;;;;;2.63;2.00;;;8.30;99.90;;;;;;4976316;28;20335;-76
2022/01/04 11:06:42;;;;;;;3.10;1.70;;;8.40;99.90;;;;;;4985495;28;20279;-76
2022/01/04 11:09:09;;;;;;;2.67;2.20;;;8.40;99.90;;;;;;4985389;28;20299;-76
2022/01/04 11:11:35;;;;;;;3.03;1.73;;;8.30;99.90;;;;;;5000987;28;20180;-75
2022/01/04 11:14:03;;;;;;;3.00;1.90;;;8.20;99.90;;;;;;4985377;28;20692;-75
2022/01/04 11:16:30;;;;;;;2.53;2.13;;;8.20;99.90;;;;;;4986566;28;20188;-77
2022/01/04 11:18:57;;;;;;;3.60;2.27;;;8.20;99.90;;;;;;4986804;28;20215;-76
2022/01/04 11:21:24;;;;;;;2.30;2.10;;;8.20;99.90;;;;;;4985261;28;20191;-76
2022/01/04 11:23:51;;;;;;;4.07;2.20;;;8.20;99.90;;;;;;4985387;28;20844;-78
2022/01/04 11:26:18;;;;;;;3.73;1.90;;;8.20;99.90;;;;;;4986635;28;20263;-75
2022/01/04 11:28:46;;;;;;;8.50;2.60;;;8.20;99.90;;;;;;4985429;28;20227;-77
2022/01/04 11:31:30;;;;;;;4.20;2.50;;;8.10;99.90;;;;;;4984690;28;20670;-76
2022/01/04 11:34:13;;;;;;;2.97;2.10;;;8.10;99.90;;;;;;4985450;28;20184;-77
2022/01/04 11:36:49;;;;;;;3.27;2.07;;;8.20;99.90;;;;;;4984846;28;20199;-76
2022/01/04 11:39:38;;;;;;;7.30;2.50;;;8.10;99.90;;;;;;4985214;28;20322;-77
2022/01/04 11:42:37;;;;;;;2.70;2.37;;;8.10;99.90;;;;;;4985731;28;20247;-76
2022/01/04 11:45:07;;;;;;;3.67;2.40;;;8.20;99.90;;;;;;4987038;28;20176;-76
2022/01/04 11:47:34;;;;;;;2.93;2.10;;;8.10;99.90;;;;;;4987061;28;20204;-78
2022/01/04 11:50:20;;;;;;;2.60;1.90;;;8.10;99.90;;;;;;4987023;28;20184;-75
2022/01/04 11:52:48;;;;;;;3.07;1.83;;;8.10;99.90;;;;;;4987271;28;20180;-77
2022/01/04 11:55:16;;;;;;;5.67;2.70;;;8.10;99.90;;;;;;4987039;28;20275;-77
2022/01/04 11:57:42;;;;;;;3.43;2.70;;;8.10;99.90;;;;;;4987092;28;20244;-78
2022/01/04 12:00:08;;;;;;;3.87;2.30;;;8.10;99.90;;;;;;4985477;28;20219;-79
2022/01/04 12:02:39;;;;;;;2.97;2.60;;;8.10;99.90;;;;;;4984627;28;20184;-78
2022/01/04 12:05:24;;;;;;;3.13;2.47;;;8.10;99.90;;;;;;4984599;28;20187;-77
2022/01/04 12:08:00;;;;;;;3.70;2.50;;;8.10;99.90;;;;;;4983231;28;20204;-76
2022/01/04 12:10:26;;;;;;;4.90;2.97;;;8.00;99.90;;;;;;4986207;28;20179;-76
2022/01/04 12:12:59;;;;;;;4.03;2.70;;;8.10;99.90;;;;;;4986231;28;20688;-76
2022/01/04 12:15:33;;;;;;;4.30;2.67;;;8.00;99.90;;;;;;4985858;28;20439;-78
2022/01/04 12:18:03;;;;;;;6.13;2.87;;;8.00;99.90;;;;;;4984555;28;20604;-76
2022/01/04 12:20:44;;;;;;;4.80;2.93;;;8.00;99.90;;;;;;4988557;28;20180;-78
2022/01/04 12:23:29;;;;;;;3.70;2.67;;;8.10;99.90;;;;;;4981369;28;20194;-77
2022/01/04 12:28:36;;;;;;;4.37;3.20;;;8.20;99.90;;;;;;4989761;28;20592;-78
2022/01/04 12:31:17;;;;;;;3.83;3.20;;;8.20;99.90;;;;;;4989720;28;20183;-79
2022/01/04 12:33:44;;;;;;;3.87;2.77;;;8.30;99.90;;;;;;4983362;28;20258;-79
2022/01/04 12:36:11;;;;;;;5.37;3.40;;;8.30;99.90;;;;;;4989771;28;20192;-78
2022/01/04 12:38:37;;;;;;;6.00;3.90;;;8.30;99.90;;;;;;4986678;28;20219;-80
2022/01/04 12:41:04;;;;;;;10.23;6.00;;;8.30;99.90;;;;;;4985207;28;20184;-80
2022/01/04 12:43:31;;;;;;;6.40;4.07;;;8.30;99.90;;;;;;4987257;28;20184;-78
2022/01/04 12:46:01;;;;;;;7.83;4.80;;;8.30;99.90;;;;;;4988011;28;20176;-79
2022/01/04 12:48:47;;;;;;;6.27;4.70;;;8.30;99.90;;;;;;5003313;28;20698;-77
2022/01/04 12:51:26;;;;;;;9.43;4.87;;;8.10;99.90;;;;;;4987176;28;20188;-78
2022/01/04 12:54:16;;;;;;;7.17;4.33;;;8.10;99.90;;;;;;5003366;28;20755;-78
2022/01/04 12:57:00;;;;;;;14.47;10.70;;;8.10;99.90;;;;;;4991014;28;20208;-78
2022/01/04 12:59:26;;;;;;;7.67;5.53;;;8.10;99.90;;;;;;4994342;28;20787;-78
2022/01/04 13:01:54;;;;;;;13.47;8.20;;;8.10;99.90;;;;;;4994976;28;20186;-78
2022/01/04 13:04:42;;;;;;;10.77;6.53;;;8.00;99.90;;;;;;4996304;28;20180;-78
2022/01/04 13:07:38;;;;;;;11.73;7.53;;;7.90;99.90;;;;;;4995412;28;20204;-77
2022/01/04 13:10:12;;;;;;;13.73;9.80;;;8.00;99.90;;;;;;4982818;28;20207;-77
2022/01/04 13:12:42;;;;;;;13.70;7.10;;;8.00;99.90;;;;;;4993287;28;20205;-78
2022/01/04 13:15:11;;;;;;;9.17;6.67;;;8.00;99.90;;;;;;4991128;28;20574;-78
2022/01/04 13:17:42;;;;;;;8.60;5.00;;;8.10;99.90;;;;;;4994160;28;20208;-77